createdAt,value
2018-12-15T00:02:26.573Z,22.87
2018-12-15T00:04:54.073Z,21.47
2018-12-15T00:07:21.573Z,19.90
2018-12-15T00:09:49.068Z,20.53
2018-12-15T00:12:16.571Z,20.93
2018-12-15T00:14:44.105Z,21.27
2018-12-15T00:17:11.605Z,21.10
2018-12-15T00:19:39.107Z,22.73
2018-12-15T00:22:06.601Z,19.47
2018-12-15T00:24:34.105Z,22.67
2018-12-15T00:27:01.610Z,21.40
2018-12-15T00:29:29.112Z,21.67
2018-12-15T00:31:56.608Z,20.30
2018-12-15T00:34:24.104Z,21.83
2018-12-15T00:36:51.601Z,21.43
2018-12-15T00:39:19.105Z,19.23
2018-12-15T00:41:46.605Z,18.10
2018-12-15T00:44:14.101Z,18.77
2018-12-15T00:46:41.604Z,20.03
2018-12-15T00:49:09.105Z,19.97
2018-12-15T00:51:36.608Z,20.60
2018-12-15T00:54:04.109Z,18.93
2018-12-15T00:56:31.609Z,18.77
2018-12-15T00:58:59.109Z,18.43
2018-12-15T01:01:26.609Z,18.33
2018-12-15T01:03:54.106Z,19.87
2018-12-15T01:06:21.614Z,19.10
2018-12-15T01:08:49.114Z,19.27
2018-12-15T01:11:16.614Z,18.47
2018-12-15T01:13:44.110Z,20.37
2018-12-15T01:16:11.606Z,18.33
2018-12-15T01:18:39.098Z,19.53
2018-12-15T01:21:06.597Z,16.87
2018-12-15T01:23:34.105Z,17.80
2018-12-15T01:26:01.597Z,17.57
2018-12-15T01:28:29.102Z,19.13
2018-12-15T01:30:56.601Z,16.63
2018-12-15T01:33:24.098Z,19.67
2018-12-15T01:35:51.597Z,17.80
2018-12-15T01:38:19.105Z,17.50
2018-12-15T01:40:46.601Z,17.50
2018-12-15T01:43:14.097Z,17.60
2018-12-15T01:45:41.598Z,18.63
2018-12-15T01:48:09.100Z,16.20
2018-12-15T01:50:36.605Z,17.67
2018-12-15T01:53:04.106Z,16.70
2018-12-15T01:55:31.604Z,19.33
2018-12-15T01:57:59.097Z,16.97
2018-12-15T02:00:26.589Z,16.47
2018-12-15T02:02:54.092Z,16.07
2018-12-15T02:05:21.593Z,16.87
2018-12-15T02:07:49.090Z,18.13
2018-12-15T02:10:16.590Z,15.17
2018-12-15T02:12:44.089Z,16.47
2018-12-15T02:15:11.593Z,16.30
2018-12-15T02:17:39.088Z,16.33
2018-12-15T02:20:06.665Z,15.47
2018-12-15T02:22:34.163Z,15.73
2018-12-15T02:25:01.658Z,15.30
2018-12-15T02:27:29.162Z,15.47
2018-12-15T02:29:56.671Z,17.43
2018-12-15T02:32:24.176Z,17.97
2018-12-15T02:34:51.684Z,17.10
2018-12-15T02:37:19.262Z,16.53
2018-12-15T02:39:46.806Z,15.37
2018-12-15T02:42:14.304Z,15.27
2018-12-15T02:44:41.810Z,16.27
2018-12-15T02:47:09.310Z,15.60
2018-12-15T02:49:36.816Z,15.47
2018-12-15T02:52:04.602Z,14.70
2018-12-15T02:54:32.104Z,14.40
2018-12-15T02:56:59.614Z,15.30
2018-12-15T02:59:27.117Z,15.97
2018-12-15T03:01:54.614Z,16.57
2018-12-15T03:04:22.113Z,14.57
2018-12-15T03:06:49.615Z,13.43
2018-12-15T03:09:17.122Z,14.30
2018-12-15T03:11:44.622Z,14.73
2018-12-15T03:14:12.121Z,13.77
2018-12-15T03:16:43.569Z,13.93
2018-12-15T03:19:11.153Z,13.87
2018-12-15T03:21:38.663Z,14.30
2018-12-15T03:24:06.261Z,13.33
2018-12-15T03:26:33.752Z,13.63
2018-12-15T03:29:01.256Z,14.03
2018-12-15T03:31:28.759Z,15.17
2018-12-15T03:33:56.261Z,12.23
2018-12-15T03:36:23.759Z,14.23
2018-12-15T03:38:51.256Z,15.93
2018-12-15T03:41:18.758Z,14.90
2018-12-15T03:43:46.263Z,12.67
2018-12-15T03:46:13.761Z,13.90
2018-12-15T03:48:41.263Z,13.90
2018-12-15T03:51:08.761Z,13.20
2018-12-15T03:53:36.261Z,14.90
2018-12-15T03:56:03.758Z,12.97
2018-12-15T03:58:31.254Z,12.70
2018-12-15T04:00:58.750Z,12.77
2018-12-15T04:03:26.245Z,14.10
2018-12-15T04:05:53.743Z,13.67
2018-12-15T04:08:21.246Z,12.27
2018-12-15T04:10:48.843Z,12.80
2018-12-15T04:13:16.345Z,12.73
2018-12-15T04:15:43.852Z,11.87
2018-12-15T04:18:11.349Z,11.43
2018-12-15T04:20:38.843Z,13.27
2018-12-15T04:23:06.426Z,11.67
2018-12-15T04:25:33.961Z,13.23
2018-12-15T04:28:01.461Z,13.53
2018-12-15T04:30:28.958Z,12.37
2018-12-15T04:32:56.453Z,12.20
2018-12-15T04:35:23.951Z,12.40
2018-12-15T04:37:51.446Z,12.60
2018-12-15T04:40:19.324Z,11.23
2018-12-15T04:42:46.821Z,12.03
2018-12-15T04:45:14.314Z,12.03
2018-12-15T04:47:41.914Z,11.20
2018-12-15T04:50:09.421Z,12.50
2018-12-15T04:52:36.921Z,12.20
2018-12-15T04:55:04.697Z,12.43
2018-12-15T04:57:32.194Z,11.77
2018-12-15T04:59:59.699Z,11.87
2018-12-15T05:02:27.277Z,12.47
2018-12-15T05:04:54.845Z,12.00
2018-12-15T05:07:22.350Z,11.00
2018-12-15T05:09:49.868Z,10.80
2018-12-15T05:12:17.366Z,11.13
2018-12-15T05:14:44.856Z,9.30
2018-12-15T05:17:12.354Z,11.73
2018-12-15T05:19:39.857Z,12.83
2018-12-15T05:22:07.435Z,11.00
2018-12-15T05:24:34.933Z,10.57
2018-12-15T05:27:02.430Z,11.87
2018-12-15T05:29:29.936Z,12.10
2018-12-15T05:31:57.433Z,10.40
2018-12-15T05:34:24.926Z,11.80
2018-12-15T05:36:52.426Z,10.53
2018-12-15T05:39:20.040Z,11.07
2018-12-15T05:41:47.529Z,10.93
2018-12-15T05:44:15.021Z,10.57
2018-12-15T05:46:42.518Z,10.83
2018-12-15T05:49:10.013Z,12.13
2018-12-15T05:51:37.510Z,11.27
2018-12-15T05:54:05.009Z,10.00
2018-12-15T05:56:32.509Z,10.87
2018-12-15T05:59:00.005Z,10.27
2018-12-15T06:01:27.499Z,11.17
2018-12-15T06:03:55.005Z,10.53
2018-12-15T06:06:22.502Z,9.70
2018-12-15T06:08:49.998Z,11.27
2018-12-15T06:11:17.490Z,9.90
2018-12-15T06:13:44.990Z,11.17
2018-12-15T06:16:12.841Z,9.47
2018-12-15T06:18:40.335Z,10.23
2018-12-15T06:21:07.837Z,11.00
2018-12-15T06:23:35.343Z,9.87
2018-12-15T06:26:02.845Z,9.63
2018-12-15T06:28:30.346Z,10.47
2018-12-15T06:30:57.849Z,9.57
2018-12-15T06:33:25.355Z,10.83
2018-12-15T06:35:52.857Z,9.70
2018-12-15T06:38:20.353Z,10.23
2018-12-15T06:40:47.849Z,10.80
2018-12-15T06:43:15.429Z,9.70
2018-12-15T06:45:43.301Z,9.53
2018-12-15T06:48:10.793Z,9.80
2018-12-15T06:50:38.289Z,9.23
2018-12-15T06:53:05.785Z,10.47
2018-12-15T06:55:33.277Z,9.80
2018-12-15T06:58:00.771Z,9.90
2018-12-15T07:00:28.265Z,9.83
2018-12-15T07:02:55.770Z,9.70
2018-12-15T07:05:23.261Z,10.67
2018-12-15T07:07:50.769Z,8.10
2018-12-15T07:10:18.586Z,9.70
2018-12-15T07:12:46.093Z,9.53
2018-12-15T07:15:13.598Z,9.97
2018-12-15T07:17:41.086Z,9.63
2018-12-15T07:20:08.577Z,8.20
2018-12-15T07:22:36.082Z,9.23
2018-12-15T07:25:04.454Z,9.60
2018-12-15T07:27:31.950Z,10.63
2018-12-15T07:29:59.764Z,9.57
2018-12-15T07:32:27.253Z,8.73
2018-12-15T07:35:00.759Z,10.50
2018-12-15T07:37:24.253Z,9.07
2018-12-15T07:39:51.742Z,9.63
2018-12-15T07:42:19.237Z,9.43
2018-12-15T07:44:46.738Z,8.87
2018-12-15T07:47:14.238Z,10.77
2018-12-15T07:49:41.731Z,9.20
2018-12-15T07:52:09.227Z,9.17
2018-12-15T07:54:36.717Z,9.33
2018-12-15T07:57:04.221Z,8.63
2018-12-15T07:59:31.712Z,8.93
2018-12-15T08:01:59.205Z,8.83
2018-12-15T08:04:26.701Z,9.23
2018-12-15T08:06:54.196Z,9.33
2018-12-15T08:09:21.689Z,7.60
2018-12-15T08:11:54.875Z,10.37
2018-12-15T08:14:22.469Z,8.70
2018-12-15T08:16:49.974Z,9.17
2018-12-15T08:19:17.474Z,9.63
2018-12-15T08:21:44.966Z,8.47
2018-12-15T08:24:12.464Z,10.03
2018-12-15T08:26:39.957Z,8.47
2018-12-15T08:29:07.445Z,8.83
2018-12-15T08:31:34.937Z,9.30
2018-12-15T08:34:02.440Z,9.73
2018-12-15T08:36:29.933Z,8.53
2018-12-15T08:38:57.434Z,39.47
2018-12-15T08:41:25.036Z,10.17
2018-12-15T08:43:52.540Z,13.30
2018-12-15T08:46:20.038Z,11.90
2018-12-15T08:48:47.540Z,16.80
2018-12-15T08:51:15.322Z,21.47
2018-12-15T08:53:42.917Z,44.70
2018-12-15T08:56:10.415Z,24.03
2018-12-15T08:58:37.915Z,26.40
2018-12-15T09:01:05.406Z,31.27
2018-12-15T09:03:32.909Z,20.87
2018-12-15T09:06:00.404Z,17.23
2018-12-15T09:08:27.898Z,20.37
2018-12-15T09:10:55.398Z,21.77
2018-12-15T09:13:22.897Z,16.97
2018-12-15T09:15:50.398Z,15.47
2018-12-15T09:18:17.898Z,15.30
2018-12-15T09:20:45.397Z,18.40
2018-12-15T09:23:12.954Z,16.57
2018-12-15T09:25:40.454Z,17.83
2018-12-15T09:28:07.952Z,14.13
2018-12-15T09:30:35.448Z,12.33
2018-12-15T09:33:02.945Z,8.67
2018-12-15T09:35:30.446Z,13.47
2018-12-15T09:37:57.944Z,11.13
2018-12-15T09:40:25.446Z,11.37
2018-12-15T09:42:52.946Z,16.27
2018-12-15T09:45:20.765Z,14.13
2018-12-15T09:47:48.257Z,12.97
2018-12-15T09:50:15.750Z,11.83
2018-12-15T09:52:43.241Z,16.17
2018-12-15T09:55:10.742Z,21.40
2018-12-15T09:57:38.237Z,15.43
2018-12-15T10:00:06.666Z,13.50
2018-12-15T10:02:34.161Z,14.50
2018-12-15T10:05:01.663Z,12.97
2018-12-15T10:07:29.161Z,14.73
2018-12-15T10:09:56.658Z,12.43
2018-12-15T10:12:24.154Z,11.90
2018-12-15T10:14:51.649Z,8.50
2018-12-15T10:17:19.144Z,12.23
2018-12-15T10:19:47.117Z,10.13
2018-12-15T10:22:14.613Z,11.27
2018-12-15T10:24:42.109Z,15.73
2018-12-15T10:27:09.606Z,15.30
2018-12-15T10:29:42.852Z,11.47
2018-12-15T10:32:15.935Z,12.97
2018-12-15T10:34:43.441Z,10.50
2018-12-15T10:37:10.944Z,12.47
2018-12-15T10:39:38.445Z,16.33
2018-12-15T10:42:05.944Z,54.93
2018-12-15T10:44:33.449Z,213.03
2018-12-15T10:47:00.961Z,169.20
2018-12-15T10:49:30.751Z,143.97
2018-12-15T10:51:57.993Z,115.47
2018-12-15T10:54:25.496Z,106.73
2018-12-15T10:56:53.006Z,89.20
2018-12-15T10:59:20.505Z,82.57
2018-12-15T11:01:48.030Z,75.33
2018-12-15T11:04:15.543Z,76.97
2018-12-15T11:06:43.046Z,71.43
2018-12-15T11:09:10.553Z,59.43
2018-12-15T11:11:38.057Z,55.67
2018-12-15T11:14:05.563Z,46.50
2018-12-15T11:16:33.358Z,45.80
2018-12-15T11:19:00.859Z,49.50
2018-12-15T11:21:28.361Z,51.30
2018-12-15T11:23:55.870Z,47.60
2018-12-15T11:26:23.369Z,45.97
2018-12-15T11:28:50.877Z,41.07
2018-12-15T11:31:18.380Z,42.37
2018-12-15T11:33:45.897Z,38.70
2018-12-15T11:36:13.398Z,39.53
2018-12-15T11:38:40.901Z,36.57
2018-12-15T11:41:08.410Z,35.07
2018-12-15T11:43:35.909Z,32.53
2018-12-15T11:46:03.410Z,33.23
2018-12-15T11:48:30.913Z,28.07
2018-12-15T11:50:58.870Z,32.73
2018-12-15T11:53:26.370Z,31.43
2018-12-15T11:55:53.877Z,27.83
2018-12-15T11:58:21.386Z,26.77
2018-12-15T12:00:48.889Z,34.43
2018-12-15T12:03:16.391Z,28.57
2018-12-15T12:05:43.892Z,29.87
2018-12-15T12:08:11.397Z,26.37
2018-12-15T12:10:38.901Z,29.90
2018-12-15T12:13:06.402Z,31.13
2018-12-15T12:15:33.901Z,32.83
2018-12-15T12:18:01.410Z,44.80
2018-12-15T12:20:29.229Z,53.00
2018-12-15T12:22:56.733Z,35.50
2018-12-15T12:25:24.233Z,37.40
2018-12-15T12:27:51.734Z,33.10
2018-12-15T12:30:19.237Z,40.63
2018-12-15T12:32:46.746Z,32.27
2018-12-15T12:35:14.250Z,30.23
2018-12-15T12:37:41.758Z,25.13
2018-12-15T12:40:09.257Z,22.87
2018-12-15T12:42:36.774Z,22.77
2018-12-15T12:45:05.732Z,26.27
2018-12-15T12:47:33.230Z,23.30
2018-12-15T12:50:00.741Z,19.03
2018-12-15T12:52:28.242Z,18.80
2018-12-15T12:54:55.741Z,24.27
2018-12-15T12:57:23.240Z,17.03
2018-12-15T12:59:50.737Z,25.43
2018-12-15T13:02:18.233Z,18.40
2018-12-15T13:04:45.741Z,24.60
2018-12-15T13:07:13.250Z,22.77
2018-12-15T13:09:41.013Z,22.13
2018-12-15T13:12:08.510Z,18.50
2018-12-15T13:14:36.098Z,21.47
2018-12-15T13:17:03.595Z,20.73
2018-12-15T13:19:31.094Z,25.23
2018-12-15T13:21:58.598Z,20.17
2018-12-15T13:24:26.095Z,20.83
2018-12-15T13:26:58.977Z,29.87
2018-12-15T13:29:23.122Z,25.87
2018-12-15T13:31:50.625Z,33.40
2018-12-15T13:34:18.134Z,30.50
2018-12-15T13:36:45.636Z,33.00
2018-12-15T13:39:13.150Z,39.77
2018-12-15T13:41:40.657Z,33.93
2018-12-15T13:44:08.167Z,39.97
2018-12-15T13:46:35.671Z,48.23
2018-12-15T13:49:03.177Z,49.27
2018-12-15T13:51:30.682Z,41.67
2018-12-15T13:53:58.185Z,40.20
2018-12-15T13:56:25.685Z,31.93
2018-12-15T13:58:53.198Z,37.80
2018-12-15T14:01:20.702Z,34.60
2018-12-15T14:03:48.213Z,34.43
2018-12-15T14:06:15.713Z,36.00
2018-12-15T14:08:43.218Z,29.10
2018-12-15T14:11:10.721Z,35.87
2018-12-15T14:13:38.221Z,32.70
2018-12-15T14:16:05.730Z,34.57
2018-12-15T14:18:33.237Z,28.83
2018-12-15T14:21:00.743Z,27.33
2018-12-15T14:23:28.245Z,29.60
2018-12-15T14:25:55.745Z,34.00
2018-12-15T14:28:23.259Z,33.90
2018-12-15T14:30:50.769Z,39.03
2018-12-15T14:33:18.273Z,30.93
2018-12-15T14:35:45.784Z,30.70
2018-12-15T14:38:13.290Z,35.33
2018-12-15T14:40:40.844Z,31.57
2018-12-15T14:43:08.353Z,28.90
2018-12-15T14:45:35.854Z,26.97
2018-12-15T14:48:03.359Z,26.50
2018-12-15T14:50:30.865Z,27.40
2018-12-15T14:52:58.372Z,24.73
2018-12-15T14:55:25.873Z,24.60
2018-12-15T14:57:53.388Z,25.27
2018-12-15T15:00:20.889Z,21.27
2018-12-15T15:02:48.389Z,22.17
2018-12-15T15:05:15.892Z,22.97
2018-12-15T15:07:43.398Z,28.87
2018-12-15T15:10:10.901Z,25.10
2018-12-15T15:12:38.410Z,22.97
2018-12-15T15:15:06.197Z,24.57
2018-12-15T15:17:33.702Z,22.83
2018-12-15T15:20:01.209Z,27.40
2018-12-15T15:22:28.710Z,27.23
2018-12-15T15:24:56.595Z,21.80
2018-12-15T15:27:24.109Z,18.83
2018-12-15T15:29:51.873Z,22.83
2018-12-15T15:32:19.369Z,15.70
2018-12-15T15:34:47.343Z,19.67
2018-12-15T15:37:14.842Z,21.87
2018-12-15T15:39:42.344Z,20.60
2018-12-15T15:42:10.327Z,14.43
2018-12-15T15:44:37.841Z,18.20
2018-12-15T15:47:05.341Z,17.47
2018-12-15T15:49:32.841Z,17.80
2018-12-15T15:52:00.342Z,16.30
2018-12-15T15:54:27.841Z,14.57
2018-12-15T15:56:55.343Z,16.00
2018-12-15T15:59:22.842Z,14.80
2018-12-15T16:01:50.341Z,15.53
2018-12-15T16:04:17.843Z,14.57
2018-12-15T16:06:45.342Z,12.37
2018-12-15T16:09:12.869Z,13.20
2018-12-15T16:11:40.366Z,13.90
2018-12-15T16:14:07.870Z,13.27
2018-12-15T16:16:35.368Z,11.97
2018-12-15T16:19:02.872Z,12.07
2018-12-15T16:21:30.385Z,11.70
2018-12-15T16:23:57.892Z,11.67
2018-12-15T16:26:25.389Z,12.67
2018-12-15T16:28:52.889Z,12.53
2018-12-15T16:31:20.385Z,10.73
2018-12-15T16:33:47.993Z,13.43
2018-12-15T16:36:15.496Z,9.10
2018-12-15T16:38:43.003Z,13.07
2018-12-15T16:41:10.501Z,11.13
2018-12-15T16:43:38.001Z,12.73
2018-12-15T16:46:05.501Z,10.83
2018-12-15T16:48:35.081Z,9.57
2018-12-15T16:51:05.233Z,9.67
2018-12-15T16:53:35.523Z,13.33
2018-12-15T16:56:03.294Z,10.20
2018-12-15T16:58:32.537Z,11.70
2018-12-15T17:01:00.217Z,10.90
2018-12-15T17:03:30.486Z,9.50
2018-12-15T17:05:57.229Z,10.33
2018-12-15T17:08:24.725Z,9.07
2018-12-15T17:10:52.536Z,8.07
2018-12-15T17:13:20.035Z,13.43
2018-12-15T17:15:47.541Z,10.43
2018-12-15T17:18:15.051Z,11.03
2018-12-15T17:20:42.550Z,8.43
2018-12-15T17:23:10.051Z,10.77
2018-12-15T17:25:37.938Z,9.10
2018-12-15T17:28:05.432Z,8.03
2018-12-15T17:30:32.930Z,10.00
2018-12-15T17:33:00.431Z,7.93
2018-12-15T17:35:27.941Z,7.47
2018-12-15T17:37:55.441Z,58.07
2018-12-15T17:40:22.953Z,22.33
2018-12-15T17:42:50.461Z,26.67
2018-12-15T17:45:17.969Z,21.90
2018-12-15T17:47:45.472Z,22.20
2018-12-15T17:50:12.975Z,10.50
2018-12-15T17:52:40.473Z,19.27
2018-12-15T17:55:07.974Z,13.33
2018-12-15T17:57:35.991Z,14.47
2018-12-15T18:00:05.957Z,18.53
2018-12-15T18:02:33.754Z,16.33
2018-12-15T18:05:01.255Z,12.13
2018-12-15T18:07:28.765Z,15.10
2018-12-15T18:09:56.262Z,12.70
2018-12-15T18:12:23.762Z,12.87
2018-12-15T18:14:51.264Z,12.30
2018-12-15T18:17:18.885Z,10.93
2018-12-15T18:19:46.385Z,15.17
2018-12-15T18:22:13.881Z,8.73
2018-12-15T18:24:41.381Z,15.97
2018-12-15T18:27:08.878Z,17.17
2018-12-15T18:29:36.376Z,11.47
2018-12-15T18:32:03.869Z,13.23
2018-12-15T18:34:31.369Z,15.80
2018-12-15T18:36:58.865Z,12.80
2018-12-15T18:39:26.364Z,11.67
2018-12-15T18:41:53.861Z,12.20
2018-12-15T18:44:21.360Z,14.40
2018-12-15T18:46:48.873Z,16.70
2018-12-15T18:49:16.374Z,11.70
2018-12-15T18:51:43.870Z,13.13
2018-12-15T18:54:11.371Z,13.30
2018-12-15T18:56:39.047Z,9.10
2018-12-15T18:59:07.150Z,13.10
2018-12-15T19:01:34.737Z,12.30
2018-12-15T19:04:02.237Z,9.47
2018-12-15T19:06:29.737Z,9.23
2018-12-15T19:09:03.886Z,9.73
2018-12-15T19:11:26.739Z,8.60
2018-12-15T19:13:54.241Z,8.60
2018-12-15T19:16:21.734Z,8.40
2018-12-15T19:18:49.233Z,10.67
2018-12-15T19:21:22.776Z,9.93
2018-12-15T19:23:46.354Z,8.00
2018-12-15T19:26:13.850Z,10.43
2018-12-15T19:28:41.342Z,8.03
2018-12-15T19:31:08.841Z,7.40
2018-12-15T19:33:36.334Z,6.80
2018-12-15T19:36:04.053Z,8.53
2018-12-15T19:38:31.548Z,7.57
2018-12-15T19:40:59.045Z,9.30
2018-12-15T19:43:26.538Z,8.57
2018-12-15T19:45:54.245Z,7.97
2018-12-15T19:48:21.738Z,7.40
2018-12-15T19:50:49.230Z,8.57
2018-12-15T19:53:16.725Z,8.37
2018-12-15T19:55:44.218Z,8.27
2018-12-15T19:58:11.714Z,8.07
2018-12-15T20:00:39.215Z,9.67
2018-12-15T20:03:06.710Z,7.27
2018-12-15T20:05:34.200Z,8.83
2018-12-15T20:08:01.697Z,9.73
2018-12-15T20:10:29.193Z,8.53
2018-12-15T20:12:56.699Z,9.87
2018-12-15T20:15:24.198Z,7.57
2018-12-15T20:17:51.692Z,8.53
2018-12-15T20:20:19.183Z,7.63
2018-12-15T20:22:46.682Z,7.20
2018-12-15T20:25:14.293Z,8.13
2018-12-15T20:27:41.785Z,8.90
2018-12-15T20:30:09.281Z,7.87
2018-12-15T20:32:36.775Z,7.53
2018-12-15T20:35:04.655Z,8.90
2018-12-15T20:37:32.149Z,8.10
2018-12-15T20:39:59.645Z,6.70
2018-12-15T20:42:27.200Z,7.30
2018-12-15T20:44:54.749Z,7.40
2018-12-15T20:47:27.915Z,6.77
2018-12-15T20:49:51.756Z,7.73
2018-12-15T20:52:19.252Z,7.97
2018-12-15T20:54:46.742Z,5.80
2018-12-15T20:57:14.231Z,7.63
2018-12-15T20:59:41.725Z,7.97
2018-12-15T21:02:09.218Z,7.77
2018-12-15T21:04:36.715Z,7.60
2018-12-15T21:07:04.265Z,6.33
2018-12-15T21:09:31.817Z,7.97
2018-12-15T21:11:59.313Z,10.57
2018-12-15T21:14:26.806Z,7.93
2018-12-15T21:16:54.297Z,7.50
2018-12-15T21:19:21.797Z,7.33
2018-12-15T21:21:49.693Z,6.87
2018-12-15T21:24:17.506Z,6.83
2018-12-15T21:26:45.000Z,6.47
2018-12-15T21:29:12.496Z,6.53
2018-12-15T21:31:39.988Z,6.50
2018-12-15T21:34:08.011Z,5.87
2018-12-15T21:36:36.093Z,9.17
2018-12-15T21:39:04.943Z,6.87
2018-12-15T21:41:32.434Z,6.97
2018-12-15T21:43:59.929Z,8.20
2018-12-15T21:46:27.416Z,7.17
2018-12-15T21:48:54.905Z,7.07
2018-12-15T21:51:22.398Z,7.00
2018-12-15T21:53:49.894Z,6.27
2018-12-15T21:56:17.389Z,7.43
2018-12-15T21:58:44.887Z,7.60
2018-12-15T22:01:12.381Z,5.97
2018-12-15T22:03:39.876Z,6.63
2018-12-15T22:06:07.370Z,6.77
2018-12-15T22:08:34.866Z,7.73
2018-12-15T22:11:02.366Z,6.97
2018-12-15T22:13:29.861Z,7.63
2018-12-15T22:15:57.477Z,6.30
2018-12-15T22:18:24.971Z,5.87
2018-12-15T22:20:52.552Z,6.20
2018-12-15T22:23:20.049Z,6.43
2018-12-15T22:25:47.541Z,5.90
2018-12-15T22:28:15.034Z,6.47
2018-12-15T22:30:42.536Z,6.27
2018-12-15T22:33:10.028Z,6.63
2018-12-15T22:35:37.522Z,7.07
2018-12-15T22:38:05.017Z,6.30
2018-12-15T22:40:32.505Z,6.87
2018-12-15T22:42:59.998Z,6.80
2018-12-15T22:45:27.500Z,6.30
2018-12-15T22:47:54.997Z,7.73
2018-12-15T22:50:22.621Z,5.73
2018-12-15T22:52:50.114Z,7.57
2018-12-15T22:55:17.610Z,6.27
2018-12-15T22:57:45.101Z,6.40
2018-12-15T23:00:12.802Z,4.90
2018-12-15T23:02:40.297Z,7.10
2018-12-15T23:05:07.792Z,6.17
2018-12-15T23:07:35.282Z,5.83
2018-12-15T23:10:04.229Z,6.03
2018-12-15T23:12:31.739Z,6.03
2018-12-15T23:14:59.229Z,6.43
2018-12-15T23:17:26.741Z,7.07
2018-12-15T23:19:54.233Z,7.23
2018-12-15T23:22:21.721Z,6.00
2018-12-15T23:24:49.215Z,4.80
2018-12-15T23:27:16.713Z,5.77
2018-12-15T23:29:44.207Z,6.27
2018-12-15T23:32:11.703Z,5.07
2018-12-15T23:34:39.201Z,7.03
2018-12-15T23:37:06.693Z,6.60
2018-12-15T23:39:34.191Z,6.70
2018-12-15T23:42:01.689Z,8.40
2018-12-15T23:44:29.185Z,6.37
2018-12-15T23:46:56.674Z,7.77
2018-12-15T23:49:24.169Z,7.10
2018-12-15T23:51:51.664Z,5.37
2018-12-15T23:54:19.157Z,4.87
2018-12-15T23:56:46.655Z,5.80
2018-12-15T23:59:14.149Z,6.23
